KBVY/BVY METAR and TAF weather

Enter ICAO airport designator
Station Type Date Time Source
KBVY METAR 2020/04/04 20:53 UTC NOAA

KBVY 042053Z 14007KT 10SM BKN055 07/02 A3001 RMK AO2 SLP157 T00670022 55007


Station Type Date Time Source
KBVY Decoded METAR 2020/04/04 20:53 UTC NOAA

BEVERLY MUNICIPAL AIRPORT, MA, United States (KBVY) 42-35N 070-55W 28M
Apr 04, 2020 - 04:53 PM EDT / 2020.04.04 2053 UTC
Wind: from the SE (140 degrees) at 8 MPH (7 KT):0
Visibility: 10 mile(s):0
Sky conditions: mostly cloudy
Temperature: 44.1 F (6.7 C)
Dew Point: 36.0 F (2.2 C)
Relative Humidity: 72%
Pressure (altimeter): 30.01 in. Hg (1016 hPa)
Pressure tendency: 0.02 inches (0.7 hPa) lower than three hours ago
ob: KBVY 042053Z 14007KT 10SM BKN055 07/02 A3001 RMK AO2 SLP157 T00670022 55007
cycle: 21

Station Type Date Time Source
KBVY TAF UTC NOAA

Error!

Example: see airport list